createdAt,value
2018-07-16T00:01:29.775Z,100912.72
2018-07-16T00:03:55.745Z,100914.41
2018-07-16T00:06:21.711Z,100918.75
2018-07-16T00:08:47.668Z,100913.92
2018-07-16T00:11:13.833Z,100917.56
2018-07-16T00:13:39.824Z,100919.39
2018-07-16T00:16:05.891Z,100913.92
2018-07-16T00:18:31.858Z,100911.93
2018-07-16T00:20:57.823Z,100907.13
2018-07-16T00:23:23.821Z,100905.80
2018-07-16T00:25:49.794Z,100902.47
2018-07-16T00:28:15.775Z,100902.47
2018-07-16T00:30:41.753Z,100900.64
2018-07-16T00:33:07.710Z,100896.84
2018-07-16T00:35:33.691Z,100892.52
2018-07-16T00:37:59.656Z,100889.19
2018-07-16T00:40:25.641Z,100890.53
2018-07-16T00:42:51.613Z,100890.36
2018-07-16T00:45:18.626Z,100888.70
2018-07-16T00:47:44.593Z,100886.91
2018-07-16T00:50:10.597Z,100877.77
2018-07-16T00:52:36.577Z,100886.88
2018-07-16T00:55:02.558Z,100878.27
2018-07-16T00:57:28.528Z,100881.25
2018-07-16T00:59:54.502Z,100872.46
2018-07-16T01:02:20.464Z,100874.77
2018-07-16T01:04:46.524Z,100867.16
2018-07-16T01:07:12.487Z,100861.84
2018-07-16T01:09:38.462Z,100872.14
2018-07-16T01:12:04.451Z,100865.00
2018-07-16T01:14:30.446Z,100876.28
2018-07-16T01:16:56.436Z,100865.31
2018-07-16T01:19:22.401Z,100867.66
2018-07-16T01:21:48.371Z,100865.98
2018-07-16T01:24:14.401Z,100869.98
2018-07-16T01:26:40.353Z,100867.14
2018-07-16T01:29:06.305Z,100869.12
2018-07-16T01:31:32.261Z,100869.82
2018-07-16T01:33:58.229Z,100864.52
2018-07-16T01:36:24.221Z,100864.52
2018-07-16T01:38:50.204Z,100860.69
2018-07-16T01:41:16.173Z,100860.51
2018-07-16T01:43:42.142Z,100856.70
2018-07-16T01:46:08.114Z,100864.00
2018-07-16T01:48:34.103Z,100857.37
2018-07-16T01:51:00.073Z,100859.70
2018-07-16T01:53:26.049Z,100855.36
2018-07-16T01:55:52.028Z,100857.16
2018-07-16T01:58:18.007Z,100851.39
2018-07-16T02:00:43.972Z,100846.59
2018-07-16T02:03:09.968Z,100853.06
2018-07-16T02:05:35.957Z,100849.91
2018-07-16T02:08:01.948Z,100853.38
2018-07-16T02:10:27.918Z,100857.36
2018-07-16T02:12:54.036Z,100855.52
2018-07-16T02:15:20.006Z,100851.71
2018-07-16T02:17:45.994Z,100852.86
2018-07-16T02:20:11.957Z,100852.70
2018-07-16T02:22:37.924Z,100848.05
2018-07-16T02:25:03.903Z,100846.87
2018-07-16T02:27:29.877Z,100843.92
2018-07-16T02:29:55.860Z,100850.55
2018-07-16T02:32:21.858Z,100854.69
2018-07-16T02:34:47.892Z,100847.06
2018-07-16T02:37:13.855Z,100850.04
2018-07-16T02:39:39.837Z,100847.56
2018-07-16T02:42:05.808Z,100844.06
2018-07-16T02:44:31.759Z,100843.90
2018-07-16T02:46:57.739Z,100847.23
2018-07-16T02:49:23.694Z,100849.88
2018-07-16T02:51:49.644Z,100847.56
2018-07-16T02:54:15.627Z,100846.40
2018-07-16T02:56:41.625Z,100849.04
2018-07-16T02:59:07.578Z,100849.20
2018-07-16T03:01:33.571Z,100849.04
2018-07-16T03:03:59.547Z,100852.20
2018-07-16T03:06:25.540Z,100854.34
2018-07-16T03:08:51.498Z,100852.36
2018-07-16T03:11:17.489Z,100849.22
2018-07-16T03:13:43.480Z,100851.55
2018-07-16T03:16:09.436Z,100856.69
2018-07-16T03:18:35.436Z,100853.36
2018-07-16T03:21:01.437Z,100854.02
2018-07-16T03:23:27.396Z,100850.20
2018-07-16T03:25:53.348Z,100854.52
2018-07-16T03:28:19.330Z,100856.00
2018-07-16T03:30:45.302Z,100855.01
2018-07-16T03:33:11.246Z,100851.03
2018-07-16T03:35:37.224Z,100851.85
2018-07-16T03:38:03.185Z,100850.53
2018-07-16T03:40:29.199Z,100846.87
2018-07-16T03:42:55.155Z,100852.52
2018-07-16T03:45:21.111Z,100858.16
2018-07-16T03:47:47.081Z,100854.69
2018-07-16T03:50:13.072Z,100856.17
2018-07-16T03:52:39.034Z,100855.52
2018-07-16T03:55:05.008Z,100860.49
2018-07-16T03:57:30.960Z,100857.85
2018-07-16T03:59:56.953Z,100856.36
2018-07-16T04:02:22.929Z,100858.33
2018-07-16T04:04:48.885Z,100859.34
2018-07-16T04:07:14.883Z,100862.31
2018-07-16T04:09:40.830Z,100860.67
2018-07-16T04:12:06.783Z,100862.81
2018-07-16T04:14:32.758Z,100865.47
2018-07-16T04:16:58.748Z,100865.62
2018-07-16T04:19:24.703Z,100863.63
2018-07-16T04:21:50.643Z,100858.99
2018-07-16T04:24:16.601Z,100856.52
2018-07-16T04:26:42.578Z,100851.69
2018-07-16T04:29:08.528Z,100849.55
2018-07-16T04:31:34.517Z,100852.05
2018-07-16T04:34:00.480Z,100858.00
2018-07-16T04:36:26.463Z,100856.69
2018-07-16T04:38:52.414Z,100856.02
2018-07-16T04:41:18.383Z,100855.67
2018-07-16T04:43:44.329Z,100859.65
2018-07-16T04:46:10.268Z,100860.66
2018-07-16T04:48:36.232Z,100852.70
2018-07-16T04:51:02.201Z,100853.04
2018-07-16T04:53:28.158Z,100853.37
2018-07-16T04:55:54.138Z,100851.69
2018-07-16T04:58:20.106Z,100847.23
2018-07-16T05:00:46.084Z,100855.02
2018-07-16T05:03:12.073Z,100851.86
2018-07-16T05:05:38.025Z,100850.20
2018-07-16T05:08:04.014Z,100851.38
2018-07-16T05:10:29.994Z,100848.06
2018-07-16T05:12:55.973Z,100844.75
2018-07-16T05:15:21.949Z,100845.73
2018-07-16T05:17:47.924Z,100844.41
2018-07-16T05:20:13.911Z,100845.73
2018-07-16T05:22:39.880Z,100837.79
2018-07-16T05:25:05.842Z,100834.96
2018-07-16T05:27:31.829Z,100839.26
2018-07-16T05:29:57.784Z,100836.45
2018-07-16T05:32:23.982Z,100833.80
2018-07-16T05:34:49.730Z,100830.14
2018-07-16T05:37:15.690Z,100831.81
2018-07-16T05:39:41.683Z,100830.97
2018-07-16T05:42:07.673Z,100830.14
2018-07-16T05:44:33.692Z,100831.67
2018-07-16T05:46:59.667Z,100830.82
2018-07-16T05:49:25.756Z,100828.81
2018-07-16T05:51:51.712Z,100828.48
2018-07-16T05:54:17.671Z,100836.44
2018-07-16T05:56:43.654Z,100834.79
2018-07-16T05:59:09.624Z,100838.97
2018-07-16T06:01:35.598Z,100840.77
2018-07-16T06:04:01.572Z,100842.44
2018-07-16T06:06:27.547Z,100844.09
2018-07-16T06:08:53.606Z,100845.60
2018-07-16T06:11:19.500Z,100845.05
2018-07-16T06:13:46.182Z,100843.11
2018-07-16T06:16:12.206Z,100843.62
2018-07-16T06:18:38.206Z,100840.97
2018-07-16T06:21:04.200Z,100838.47
2018-07-16T06:23:30.280Z,100842.77
2018-07-16T06:25:56.292Z,100835.79
2018-07-16T06:28:22.272Z,100834.47
2018-07-16T06:30:48.258Z,100831.81
2018-07-16T06:33:14.228Z,100831.47
2018-07-16T06:35:40.198Z,100823.86
2018-07-16T06:38:06.223Z,100830.99
2018-07-16T06:40:33.435Z,100828.49
2018-07-16T06:42:59.267Z,100827.34
2018-07-16T06:45:25.231Z,100833.46
2018-07-16T06:47:51.280Z,100826.52
2018-07-16T06:50:17.217Z,100827.49
2018-07-16T06:52:43.207Z,100827.83
2018-07-16T06:55:09.217Z,100821.84
2018-07-16T06:57:35.159Z,100823.86
2018-07-16T07:00:01.108Z,100824.02
2018-07-16T07:02:27.103Z,100827.66
2018-07-16T07:04:53.074Z,100829.16
2018-07-16T07:07:19.055Z,100830.48
2018-07-16T07:09:45.028Z,100827.17
2018-07-16T07:12:11.021Z,100831.81
2018-07-16T07:14:36.997Z,100830.64
2018-07-16T07:17:02.952Z,100831.84
2018-07-16T07:19:28.952Z,100828.33
2018-07-16T07:21:54.913Z,100828.00
2018-07-16T07:24:20.909Z,100826.99
2018-07-16T07:26:46.913Z,100826.48
2018-07-16T07:29:12.865Z,100816.90
2018-07-16T07:31:38.839Z,100822.66
2018-07-16T07:34:04.833Z,100818.87
2018-07-16T07:36:30.797Z,100821.84
2018-07-16T07:38:56.785Z,100817.86
2018-07-16T07:41:22.763Z,100823.48
2018-07-16T07:43:48.735Z,100822.34
2018-07-16T07:46:14.704Z,100814.89
2018-07-16T07:48:40.682Z,100816.82
2018-07-16T07:51:06.704Z,100807.59
2018-07-16T07:53:32.702Z,100806.58
2018-07-16T07:55:59.784Z,100803.61
2018-07-16T07:58:25.734Z,100804.77
2018-07-16T08:00:51.679Z,100802.91
2018-07-16T08:03:17.812Z,100799.78
2018-07-16T08:05:43.737Z,100803.10
2018-07-16T08:08:09.727Z,100801.11
2018-07-16T08:10:35.775Z,100798.61
2018-07-16T08:13:01.738Z,100800.45
2018-07-16T08:15:27.765Z,100793.27
2018-07-16T08:17:53.734Z,100791.98
2018-07-16T08:20:19.771Z,100797.98
2018-07-16T08:22:45.760Z,100793.58
2018-07-16T08:25:11.780Z,100789.95
2018-07-16T08:27:37.857Z,100791.31
2018-07-16T08:30:03.860Z,100794.95
2018-07-16T08:32:29.848Z,100788.47
2018-07-16T08:34:55.832Z,100793.46
2018-07-16T08:37:21.841Z,100792.64
2018-07-16T08:39:47.897Z,100792.45
2018-07-16T08:42:13.875Z,100798.58
2018-07-16T08:44:39.913Z,100798.08
2018-07-16T08:47:05.897Z,100787.95
2018-07-16T08:49:31.884Z,100792.92
2018-07-16T08:51:57.875Z,100786.94
2018-07-16T08:54:23.873Z,100788.08
2018-07-16T08:56:49.835Z,100792.22
2018-07-16T08:59:15.830Z,100795.89
2018-07-16T09:01:41.780Z,100788.73
2018-07-16T09:04:07.793Z,100792.56
2018-07-16T09:06:33.724Z,100791.39
2018-07-16T09:08:59.703Z,100788.73
2018-07-16T09:11:25.682Z,100786.59
2018-07-16T09:13:51.664Z,100784.60
2018-07-16T09:16:17.626Z,100786.94
2018-07-16T09:18:43.604Z,100783.63
2018-07-16T09:21:09.586Z,100784.29
2018-07-16T09:23:35.568Z,100782.41
2018-07-16T09:26:01.538Z,100784.44
2018-07-16T09:28:27.510Z,100782.26
2018-07-16T09:30:53.481Z,100779.60
2018-07-16T09:33:19.447Z,100786.91
2018-07-16T09:35:45.413Z,100784.25
2018-07-16T09:38:11.435Z,100777.61
2018-07-16T09:40:37.394Z,100779.45
2018-07-16T09:43:03.365Z,100781.62
2018-07-16T09:45:29.347Z,100775.81
2018-07-16T09:47:56.380Z,100776.83
2018-07-16T09:50:22.385Z,100768.35
2018-07-16T09:52:48.359Z,100771.33
2018-07-16T09:55:14.378Z,100765.19
2018-07-16T09:57:40.356Z,100764.84
2018-07-16T10:00:06.351Z,100766.68
2018-07-16T10:02:32.313Z,100767.03
2018-07-16T10:04:58.282Z,100762.02
2018-07-16T10:07:24.228Z,100756.41
2018-07-16T10:09:50.244Z,100755.73
2018-07-16T10:12:16.211Z,100752.41
2018-07-16T10:14:42.186Z,100746.41
2018-07-16T10:17:08.154Z,100748.23
2018-07-16T10:19:34.134Z,100755.17
2018-07-16T10:22:00.091Z,100746.09
2018-07-16T10:24:26.072Z,100741.09
2018-07-16T10:26:52.074Z,100745.23
2018-07-16T10:29:18.056Z,100744.77
2018-07-16T10:31:44.036Z,100744.09
2018-07-16T10:34:10.004Z,100744.91
2018-07-16T10:36:36.093Z,100746.41
2018-07-16T10:39:02.070Z,100742.11
2018-07-16T10:41:28.028Z,100737.97
2018-07-16T10:43:54.005Z,100742.11
2018-07-16T10:46:20.032Z,100733.83
2018-07-16T10:48:46.102Z,100740.05
2018-07-16T10:51:12.137Z,100732.08
2018-07-16T10:53:38.133Z,100736.44
2018-07-16T10:56:04.079Z,100735.94
2018-07-16T10:58:30.044Z,100729.14
2018-07-16T11:00:56.035Z,100727.14
2018-07-16T11:03:22.166Z,100725.97
2018-07-16T11:05:48.185Z,100731.78
2018-07-16T11:08:14.138Z,100725.30
2018-07-16T11:10:40.096Z,100729.56
2018-07-16T11:13:06.079Z,100729.30
2018-07-16T11:15:32.081Z,100725.16
2018-07-16T11:17:58.055Z,100724.48
2018-07-16T11:20:24.055Z,100728.12
2018-07-16T11:22:50.023Z,100726.47
2018-07-16T11:25:15.989Z,100722.63
2018-07-16T11:27:41.960Z,100718.67
2018-07-16T11:30:07.939Z,100713.36
2018-07-16T11:32:33.935Z,100718.51
2018-07-16T11:34:59.901Z,100721.16
2018-07-16T11:37:25.866Z,100711.05
2018-07-16T11:39:51.852Z,100711.87
2018-07-16T11:42:17.872Z,100706.39
2018-07-16T11:44:43.959Z,100702.52
2018-07-16T11:47:09.950Z,100703.22
2018-07-16T11:49:35.984Z,100703.84
2018-07-16T11:52:01.979Z,100702.89
2018-07-16T11:54:27.965Z,100701.24
2018-07-16T11:56:55.024Z,100698.59
2018-07-16T11:59:21.009Z,100696.25
2018-07-16T12:01:47.037Z,100690.11
2018-07-16T12:04:12.983Z,100686.94
2018-07-16T12:06:38.954Z,100684.63
2018-07-16T12:09:04.936Z,100681.46
2018-07-16T12:11:30.901Z,100679.48
2018-07-16T12:13:56.866Z,100678.52
2018-07-16T12:16:22.846Z,100677.48
2018-07-16T12:18:48.875Z,100679.33
2018-07-16T12:21:14.845Z,100675.50
2018-07-16T12:23:40.855Z,100675.80
2018-07-16T12:26:06.903Z,100664.66
2018-07-16T12:28:32.873Z,100661.03
2018-07-16T12:30:58.835Z,100663.02
2018-07-16T12:33:24.811Z,100656.55
2018-07-16T12:35:50.776Z,100660.73
2018-07-16T12:38:16.743Z,100657.87
2018-07-16T12:40:42.714Z,100655.55
2018-07-16T12:43:08.715Z,100653.44
2018-07-16T12:45:34.715Z,100654.08
2018-07-16T12:48:00.697Z,100657.59
2018-07-16T12:50:26.768Z,100648.44
2018-07-16T12:52:52.789Z,100648.77
2018-07-16T12:55:18.754Z,100644.59
2018-07-16T12:57:44.720Z,100632.41
2018-07-16T13:00:10.697Z,100633.80
2018-07-16T13:02:36.655Z,100627.27
2018-07-16T13:05:02.630Z,100629.40
2018-07-16T13:07:28.635Z,100627.80
2018-07-16T13:09:54.590Z,100621.17
2018-07-16T13:12:20.568Z,100614.42
2018-07-16T13:14:46.590Z,100612.54
2018-07-16T13:17:12.588Z,100618.17
2018-07-16T13:19:38.539Z,100618.89
2018-07-16T13:22:04.518Z,100609.75
2018-07-16T13:24:30.544Z,100609.75
2018-07-16T13:26:56.535Z,100595.47
2018-07-16T13:29:22.521Z,100599.94
2018-07-16T13:31:48.469Z,100600.25
2018-07-16T13:34:14.410Z,100598.58
2018-07-16T13:36:40.365Z,100599.22
2018-07-16T13:39:06.377Z,100597.43
2018-07-16T13:41:32.358Z,100591.95
2018-07-16T13:43:58.372Z,100586.97
2018-07-16T13:46:24.472Z,100589.61
2018-07-16T13:48:50.337Z,100588.44
2018-07-16T13:51:16.307Z,100584.20
2018-07-16T13:53:42.279Z,100581.19
2018-07-16T13:56:08.237Z,100577.36
2018-07-16T13:58:34.231Z,100577.95
2018-07-16T14:01:00.234Z,100574.09
2018-07-16T14:03:26.299Z,100565.87
2018-07-16T14:05:52.296Z,100569.69
2018-07-16T14:08:18.352Z,100571.19
2018-07-16T14:10:44.320Z,100564.55
2018-07-16T14:13:10.276Z,100564.38
2018-07-16T14:15:36.331Z,100572.51
2018-07-16T14:18:02.437Z,100569.86
2018-07-16T14:20:28.407Z,100570.19
2018-07-16T14:22:54.399Z,100575.81
2018-07-16T14:25:20.354Z,100570.17
2018-07-16T14:27:46.407Z,100566.69
2018-07-16T14:30:12.428Z,100565.03
2018-07-16T14:32:38.438Z,100558.87
2018-07-16T14:35:04.538Z,100548.24
2018-07-16T14:37:30.490Z,100545.73
2018-07-16T14:39:56.480Z,100556.02
2018-07-16T14:42:22.469Z,100555.22
2018-07-16T14:44:48.487Z,100548.08
2018-07-16T14:47:14.456Z,100556.55
2018-07-16T14:49:40.443Z,100556.36
2018-07-16T14:52:06.421Z,100564.03
2018-07-16T14:54:32.427Z,100564.02
2018-07-16T14:56:58.485Z,100557.55
2018-07-16T14:59:24.541Z,100553.23
2018-07-16T15:01:50.513Z,100545.73
2018-07-16T15:04:16.513Z,100543.78
2018-07-16T15:06:42.578Z,100546.38
2018-07-16T15:09:08.562Z,100543.41
2018-07-16T15:11:34.545Z,100543.36
2018-07-16T15:14:00.587Z,100541.58
2018-07-16T15:16:26.503Z,100542.73
2018-07-16T15:18:52.508Z,100551.19
2018-07-16T15:21:18.741Z,100546.44
2018-07-16T15:23:44.519Z,100549.94
2018-07-16T15:26:10.488Z,100534.06
2018-07-16T15:28:36.455Z,100535.05
2018-07-16T15:31:02.437Z,100539.71
2018-07-16T15:33:28.445Z,100537.42
2018-07-16T15:35:54.429Z,100540.25
2018-07-16T15:38:20.486Z,100536.41
2018-07-16T15:40:46.423Z,100534.94
2018-07-16T15:43:12.411Z,100532.45
2018-07-16T15:45:38.387Z,100534.28
2018-07-16T15:48:04.355Z,100535.39
2018-07-16T15:50:30.319Z,100531.77
2018-07-16T15:52:56.303Z,100542.45
2018-07-16T15:55:22.275Z,100541.72
2018-07-16T15:57:48.247Z,100529.11
2018-07-16T16:00:14.312Z,100531.83
2018-07-16T16:02:41.295Z,100523.62
2018-07-16T16:05:07.334Z,100524.76
2018-07-16T16:07:33.272Z,100537.91
2018-07-16T16:09:59.245Z,100528.97
2018-07-16T16:12:25.230Z,100525.13
2018-07-16T16:14:51.203Z,100525.64
2018-07-16T16:17:17.231Z,100526.97
2018-07-16T16:19:43.232Z,100519.36
2018-07-16T16:22:09.228Z,100523.80
2018-07-16T16:24:35.185Z,100521.51
2018-07-16T16:27:02.218Z,100521.65
2018-07-16T16:29:28.714Z,100517.50
2018-07-16T16:31:54.666Z,100518.48
2018-07-16T16:34:20.671Z,100516.17
2018-07-16T16:36:46.748Z,100520.69
2018-07-16T16:39:12.773Z,100509.58
2018-07-16T16:41:38.752Z,100511.98
2018-07-16T16:44:04.720Z,100513.52
2018-07-16T16:46:30.689Z,100511.67
2018-07-16T16:48:56.770Z,100515.94
2018-07-16T16:51:22.660Z,100514.47
2018-07-16T16:53:48.653Z,100512.66
2018-07-16T16:56:14.672Z,100512.80
2018-07-16T16:58:40.756Z,100509.86
2018-07-16T17:01:06.687Z,100518.85
2018-07-16T17:03:32.738Z,100509.55
2018-07-16T17:05:58.786Z,100513.91
2018-07-16T17:08:24.778Z,100519.02
2018-07-16T17:10:50.762Z,100517.97
2018-07-16T17:13:16.739Z,100515.01
2018-07-16T17:15:42.743Z,100513.00
2018-07-16T17:18:08.745Z,100517.36
2018-07-16T17:20:34.713Z,100517.81
2018-07-16T17:23:00.695Z,100520.16
2018-07-16T17:25:26.782Z,100520.48
2018-07-16T17:27:52.760Z,100518.31
2018-07-16T17:30:18.678Z,100518.48
2018-07-16T17:32:44.697Z,100517.97
2018-07-16T17:35:10.668Z,100515.17
2018-07-16T17:37:36.629Z,100516.96
2018-07-16T17:40:02.589Z,100514.78
2018-07-16T17:42:28.623Z,100515.03
2018-07-16T17:44:54.800Z,100515.37
2018-07-16T17:47:21.744Z,100517.95
2018-07-16T17:49:47.763Z,100522.98
2018-07-16T17:52:13.694Z,100521.34
2018-07-16T17:54:39.657Z,100524.20
2018-07-16T17:57:06.516Z,100530.33
2018-07-16T17:59:32.513Z,100532.53
2018-07-16T18:01:58.525Z,100532.73
2018-07-16T18:04:24.652Z,100532.91
2018-07-16T18:06:50.642Z,100525.75
2018-07-16T18:09:16.665Z,100536.04
2018-07-16T18:11:42.647Z,100537.03
2018-07-16T18:14:08.672Z,100534.69
2018-07-16T18:16:34.701Z,100536.57
2018-07-16T18:19:00.730Z,100542.68
2018-07-16T18:21:26.724Z,100543.84
2018-07-16T18:23:52.705Z,100533.21
2018-07-16T18:26:18.706Z,100544.20
2018-07-16T18:28:44.640Z,100546.22
2018-07-16T18:31:10.605Z,100546.41
2018-07-16T18:33:37.681Z,100549.07
2018-07-16T18:36:03.659Z,100562.73
2018-07-16T18:38:29.669Z,100557.41
2018-07-16T18:40:55.677Z,100558.77
2018-07-16T18:43:21.636Z,100563.91
2018-07-16T18:45:47.640Z,100558.14
2018-07-16T18:48:13.660Z,100569.92
2018-07-16T18:50:39.670Z,100567.22
2018-07-16T18:53:05.653Z,100578.55
2018-07-16T18:55:31.854Z,100572.41
2018-07-16T18:57:57.740Z,100579.71
2018-07-16T19:00:23.726Z,100575.58
2018-07-16T19:02:50.784Z,100577.88
2018-07-16T19:05:16.796Z,100581.58
2018-07-16T19:07:42.806Z,100590.20
2018-07-16T19:10:08.772Z,100590.72
2018-07-16T19:12:34.728Z,100592.22
2018-07-16T19:15:00.767Z,100586.77
2018-07-16T19:17:26.741Z,100590.44
2018-07-16T19:19:52.708Z,100594.26
2018-07-16T19:22:18.711Z,100587.25
2018-07-16T19:24:44.670Z,100586.59
2018-07-16T19:27:10.730Z,100595.22
2018-07-16T19:29:36.751Z,100602.01
2018-07-16T19:32:02.745Z,100602.38
2018-07-16T19:34:28.844Z,100602.84
2018-07-16T19:36:55.632Z,100609.20
2018-07-16T19:39:21.629Z,100611.52
2018-07-16T19:41:47.598Z,100614.52
2018-07-16T19:44:13.580Z,100619.49
2018-07-16T19:46:39.556Z,100615.67
2018-07-16T19:49:05.542Z,100625.30
2018-07-16T19:51:31.532Z,100627.48
2018-07-16T19:53:57.503Z,100635.45
2018-07-16T19:56:23.481Z,100635.25
2018-07-16T19:58:49.617Z,100642.55
2018-07-16T20:01:15.602Z,100645.23
2018-07-16T20:03:41.636Z,100645.70
2018-07-16T20:06:07.608Z,100650.52
2018-07-16T20:08:33.613Z,100650.87
2018-07-16T20:10:59.587Z,100652.66
2018-07-16T20:13:25.651Z,100648.38
2018-07-16T20:15:51.522Z,100650.52
2018-07-16T20:18:17.514Z,100655.82
2018-07-16T20:20:43.580Z,100651.84
2018-07-16T20:23:09.518Z,100658.16
2018-07-16T20:25:35.505Z,100659.00
2018-07-16T20:28:01.481Z,100658.02
2018-07-16T20:30:27.441Z,100656.98
2018-07-16T20:32:53.430Z,100660.08
2018-07-16T20:35:19.428Z,100660.97
2018-07-16T20:37:45.454Z,100667.77
2018-07-16T20:40:11.555Z,100671.10
2018-07-16T20:42:37.559Z,100672.42
2018-07-16T20:45:03.562Z,100671.77
2018-07-16T20:47:29.663Z,100672.07
2018-07-16T20:49:55.667Z,100672.92
2018-07-16T20:52:21.657Z,100674.73
2018-07-16T20:54:47.741Z,100681.08
2018-07-16T20:57:13.777Z,100680.75
2018-07-16T20:59:39.785Z,100679.27
2018-07-16T21:02:05.791Z,100679.27
2018-07-16T21:04:31.805Z,100686.52
2018-07-16T21:06:57.849Z,100683.88
2018-07-16T21:09:23.926Z,100684.17
2018-07-16T21:11:49.948Z,100684.89
2018-07-16T21:14:15.963Z,100681.25
2018-07-16T21:16:41.993Z,100684.27
2018-07-16T21:19:07.926Z,100687.39
2018-07-16T21:21:33.917Z,100688.72
2018-07-16T21:23:59.921Z,100687.09
2018-07-16T21:26:25.881Z,100689.77
2018-07-16T21:28:51.883Z,100690.86
2018-07-16T21:31:17.883Z,100694.37
2018-07-16T21:33:43.862Z,100692.20
2018-07-16T21:36:09.895Z,100695.86
2018-07-16T21:38:36.010Z,100693.52
2018-07-16T21:41:02.019Z,100692.91
2018-07-16T21:43:28.037Z,100700.72
2018-07-16T21:45:53.984Z,100696.38
2018-07-16T21:48:20.063Z,100710.80
2018-07-16T21:50:46.049Z,100713.84
2018-07-16T21:53:12.066Z,100712.31
2018-07-16T21:55:38.043Z,100710.79
2018-07-16T21:58:04.015Z,100710.99
2018-07-16T22:00:29.979Z,100713.66
2018-07-16T22:02:56.017Z,100710.85
2018-07-16T22:05:21.989Z,100705.59
2018-07-16T22:07:48.030Z,100710.23
2018-07-16T22:10:13.985Z,100710.22
2018-07-16T22:12:39.950Z,100706.25
2018-07-16T22:15:05.955Z,100703.75
2018-07-16T22:17:31.943Z,100711.41
2018-07-16T22:19:57.993Z,100713.72
2018-07-16T22:22:23.945Z,100709.42
2018-07-16T22:24:49.891Z,100713.05
2018-07-16T22:27:15.871Z,100711.72
2018-07-16T22:29:41.875Z,100712.97
2018-07-16T22:32:07.860Z,100718.16
2018-07-16T22:34:33.880Z,100717.17
2018-07-16T22:36:59.831Z,100716.00
2018-07-16T22:39:25.801Z,100723.66
2018-07-16T22:41:51.885Z,100723.97
2018-07-16T22:44:17.861Z,100724.13
2018-07-16T22:46:44.120Z,100718.65
2018-07-16T22:49:10.110Z,100722.44
2018-07-16T22:51:36.264Z,100724.94
2018-07-16T22:54:02.238Z,100719.31
2018-07-16T22:56:28.224Z,100720.44
2018-07-16T22:58:54.193Z,100726.09
2018-07-16T23:01:20.296Z,100726.78
2018-07-16T23:03:46.247Z,100724.48
2018-07-16T23:06:12.252Z,100725.16
2018-07-16T23:08:38.310Z,100726.48
2018-07-16T23:11:04.285Z,100728.83
2018-07-16T23:13:30.321Z,100727.50
2018-07-16T23:15:56.308Z,100732.30
2018-07-16T23:18:22.295Z,100732.96
2018-07-16T23:20:48.273Z,100724.84
2018-07-16T23:23:14.333Z,100727.19
2018-07-16T23:25:41.130Z,100729.50
2018-07-16T23:28:07.121Z,100726.17
2018-07-16T23:30:33.094Z,100726.17
2018-07-16T23:32:59.089Z,100728.98
2018-07-16T23:35:25.079Z,100727.34
2018-07-16T23:37:51.142Z,100730.36
2018-07-16T23:40:17.120Z,100730.05
2018-07-16T23:42:43.133Z,100733.84
2018-07-16T23:45:09.105Z,100738.32
2018-07-16T23:47:35.084Z,100737.81
2018-07-16T23:50:01.044Z,100741.45
2018-07-16T23:52:27.033Z,100746.44
2018-07-16T23:54:53.018Z,100749.26
2018-07-16T23:57:19.021Z,100752.41
2018-07-16T23:59:44.996Z,100748.91
